Bridal Veil, Oregon
Current Conditions -  °F | °C
As of 7:03 PM on Friday 21 Nov 2014 (Local Time) from KTTD Reporting Station
Light Rain Light Rain  
Wind Chill: 58°   Ceiling: 2200
Heat Index: 58°   Visibility: 7mi
Dew Point: 53°   Wind: 15mph
Humidity: 84%   Direction: 220°SW
Pressure: 29.42"   Gusts: 30mph
Location:  45.56°N, 122.17°W
Report Text: KTTD 220303Z 22013G26KT 7SM -RA FEW015 BKN022 OVC048 14/12 A2942 RMK AO2 PK WND 23026/0255 P0000 T01440117
Loading
Personal Weather Stations






























Interactive Weather Map New forecast layout! Learn more

10-Day Weather Forecast

Advertisements
Track Severe Weather on mobile